WYB weather

Yes Bay Lodge Seaplane Base
Yes Bay, Alaska, United States

Public forecast

Using degrees Fahrenheit for public forecast. Weather courtesy of forecast.io.

METAR (pilot weather report)

Closest report is Ketchikan International Airport, 33.8 nm (62.6 km) S. Retrieved 2019/07/18 23:53 UTC (1 hour ago):

PAKT 182353Z 11010KT 10SM SCT020 BKN060 OVC085 16/12 A2996

TAF (pilot weather forecast)

Forecast is more than 12 hours old.

Closest forecast is Ketchikan International Airport, 33.8 nm (62.6 km) S. Retrieved 2019/07/18 00:24 UTC (1 day ago):

TAF PAKT 182321Z 1900/1924 14008KT P6SM -RA SCT015 BKN035 OVC060 FM190600 14006KT P6SM VCFG BKN012 BKN040 OVC060 FM191800 12007KT P6SM SCT020 BKN040 AMD LTD TO CLD VIS AND WIND 1906/1915